createdAt,value
2023-04-18T00:00:12.468Z,94.78
2023-04-18T00:04:26.829Z,95.26
2023-04-18T00:08:39.260Z,95.10
2023-04-18T00:12:51.852Z,94.76
2023-04-18T00:17:11.020Z,93.79
2023-04-18T00:21:25.897Z,93.45
2023-04-18T00:25:38.423Z,92.62
2023-04-18T00:29:50.952Z,92.71
2023-04-18T00:34:03.690Z,92.84
2023-04-18T00:38:16.104Z,90.55
2023-04-18T00:42:29.863Z,90.64
2023-04-18T00:46:42.243Z,92.00
2023-04-18T00:50:55.184Z,91.65
2023-04-18T00:55:08.910Z,91.69
2023-04-18T00:59:22.529Z,92.60
2023-04-18T01:03:35.495Z,93.31
2023-04-18T01:07:48.336Z,93.09
2023-04-18T01:12:04.610Z,93.80
2023-04-18T01:16:18.594Z,94.26
2023-04-18T01:20:31.725Z,93.68
2023-04-18T01:24:44.124Z,89.36
2023-04-18T01:28:56.965Z,90.05
2023-04-18T01:33:09.755Z,90.25
2023-04-18T01:37:22.505Z,90.46
2023-04-18T01:41:34.959Z,88.89
2023-04-18T01:45:47.533Z,88.21
2023-04-18T01:49:59.946Z,88.75
2023-04-18T01:54:14.305Z,88.05
2023-04-18T01:58:27.350Z,89.52
2023-04-18T02:02:39.768Z,87.95
2023-04-18T02:06:52.581Z,87.52
2023-04-18T02:11:06.203Z,88.91
2023-04-18T02:15:18.806Z,89.36
2023-04-18T02:19:31.352Z,87.88
2023-04-18T02:23:43.771Z,87.93
2023-04-18T02:27:57.446Z,86.79
2023-04-18T02:32:09.953Z,87.15
2023-04-18T02:36:22.398Z,86.55
2023-04-18T02:40:34.875Z,87.60
2023-04-18T02:44:47.207Z,86.17
2023-04-18T02:48:59.811Z,85.84
2023-04-18T02:53:12.248Z,85.48
2023-04-18T02:57:37.101Z,85.54
2023-04-18T03:02:10.683Z,87.10
2023-04-18T03:06:29.803Z,85.75
2023-04-18T03:10:43.105Z,86.46
2023-04-18T03:14:55.836Z,87.45
2023-04-18T03:19:08.789Z,86.98
2023-04-18T03:23:21.257Z,85.41
2023-04-18T03:27:34.223Z,86.67
2023-04-18T03:31:47.036Z,87.19
2023-04-18T03:35:59.615Z,87.50
2023-04-18T03:40:12.748Z,88.37
2023-04-18T03:44:26.881Z,89.60
2023-04-18T03:48:39.361Z,89.80
2023-04-18T03:52:56.057Z,89.48
2023-04-18T03:57:08.678Z,88.46
2023-04-18T04:01:22.952Z,88.00
2023-04-18T04:05:37.525Z,88.31
2023-04-18T04:09:50.386Z,87.83
2023-04-18T04:14:02.777Z,87.16
2023-04-18T04:18:30.094Z,84.96
2023-04-18T04:22:44.618Z,86.29
2023-04-18T04:26:57.458Z,86.26
2023-04-18T04:31:11.678Z,86.58
2023-04-18T04:35:25.451Z,87.55
2023-04-18T04:39:37.865Z,85.63
2023-04-18T04:44:05.400Z,84.50
2023-04-18T04:48:20.644Z,84.05
2023-04-18T04:52:33.141Z,83.40
2023-04-18T04:56:46.357Z,83.97
2023-04-18T05:00:58.826Z,83.43
2023-04-18T05:05:11.752Z,83.93
2023-04-18T05:09:24.155Z,83.66
2023-04-18T05:13:36.538Z,84.06
2023-04-18T05:17:48.877Z,83.93
2023-04-18T05:22:01.427Z,83.05
2023-04-18T05:26:13.901Z,81.94
2023-04-18T05:30:26.499Z,80.75
2023-04-18T05:34:39.708Z,81.23
2023-04-18T05:38:52.178Z,79.08
2023-04-18T05:43:04.569Z,77.60
2023-04-18T05:47:17.810Z,76.00
2023-04-18T05:51:31.580Z,75.57
2023-04-18T05:55:46.599Z,74.86
2023-04-18T05:59:59.115Z,73.33
2023-04-18T06:04:11.908Z,73.16
2023-04-18T06:08:24.796Z,74.89
2023-04-18T06:12:37.634Z,75.97
2023-04-18T06:16:50.459Z,75.94
2023-04-18T06:21:02.880Z,74.71
2023-04-18T06:25:16.577Z,74.78
2023-04-18T06:29:30.706Z,72.66
2023-04-18T06:33:43.171Z,72.20
2023-04-18T06:37:55.635Z,70.83
2023-04-18T06:42:08.117Z,68.71
2023-04-18T06:46:28.751Z,66.82
2023-04-18T06:50:41.426Z,64.72
2023-04-18T06:54:53.682Z,63.75
2023-04-18T06:59:06.288Z,64.83
2023-04-18T07:03:19.096Z,63.37
2023-04-18T07:07:32.097Z,61.95
2023-04-18T07:11:44.650Z,59.84
2023-04-18T07:15:57.270Z,59.71
2023-04-18T07:20:12.981Z,60.19
2023-04-18T07:24:26.861Z,58.43
2023-04-18T07:28:39.426Z,59.32
2023-04-18T07:32:51.991Z,59.19
2023-04-18T07:37:04.788Z,59.82
2023-04-18T07:41:17.191Z,57.26
2023-04-18T07:45:29.872Z,55.48
2023-04-18T07:49:42.382Z,55.19
2023-04-18T07:53:54.917Z,54.85
2023-04-18T07:58:07.514Z,54.46
2023-04-18T08:02:21.937Z,53.71
2023-04-18T08:06:35.186Z,52.52
2023-04-18T08:10:48.054Z,52.20
2023-04-18T08:15:00.669Z,52.02
2023-04-18T08:19:13.381Z,51.29
2023-04-18T08:23:26.144Z,51.63
2023-04-18T08:27:38.709Z,48.93
2023-04-18T08:31:51.301Z,49.22
2023-04-18T08:36:03.924Z,50.18
2023-04-18T08:40:17.306Z,50.17
2023-04-18T08:44:33.848Z,51.41
2023-04-18T08:48:50.073Z,47.75
2023-04-18T08:53:02.718Z,45.89
2023-04-18T08:57:30.375Z,47.88
2023-04-18T09:02:01.970Z,49.38
2023-04-18T09:06:21.429Z,47.63
2023-04-18T09:10:36.849Z,50.75
2023-04-18T09:14:51.867Z,48.19
2023-04-18T09:19:13.427Z,45.29
2023-04-18T09:23:26.408Z,49.44
2023-04-18T09:27:38.905Z,50.56
2023-04-18T09:31:56.367Z,50.02
2023-04-18T09:36:22.695Z,46.46
2023-04-18T09:40:36.019Z,46.62
2023-04-18T09:45:08.743Z,43.86
2023-04-18T09:49:21.286Z,42.91
2023-04-18T09:53:38.551Z,39.79
2023-04-18T09:57:53.142Z,42.12
2023-04-18T10:02:10.371Z,46.75
2023-04-18T10:06:27.632Z,48.84
2023-04-18T10:10:41.113Z,48.17
2023-04-18T10:14:54.935Z,49.86
2023-04-18T10:19:27.233Z,44.29
2023-04-18T10:23:40.843Z,42.17
2023-04-18T10:27:57.980Z,44.46
2023-04-18T10:32:10.327Z,46.74
2023-04-18T10:36:24.946Z,47.98
2023-04-18T10:40:37.309Z,46.97
2023-04-18T10:45:26.156Z,45.09
2023-04-18T10:49:38.650Z,44.13
2023-04-18T10:53:54.721Z,42.69
2023-04-18T10:58:07.269Z,51.73
2023-04-18T11:02:31.018Z,54.17
2023-04-18T11:06:58.979Z,56.86
2023-04-18T11:11:11.830Z,56.64
2023-04-18T11:15:25.916Z,56.35
2023-04-18T11:19:38.372Z,56.83
2023-04-18T11:23:50.891Z,54.09
2023-04-18T11:28:05.012Z,52.23
2023-04-18T11:32:17.499Z,49.03
2023-04-18T11:36:30.151Z,44.14
2023-04-18T11:40:50.636Z,45.96
2023-04-18T11:45:04.134Z,47.76
2023-04-18T11:49:33.223Z,47.06
2023-04-18T11:53:45.825Z,46.44
2023-04-18T11:58:00.345Z,45.46
2023-04-18T12:02:16.559Z,49.90
2023-04-18T12:06:46.841Z,52.07
2023-04-18T12:10:59.225Z,52.53
2023-04-18T12:15:15.710Z,52.71
2023-04-18T12:19:30.306Z,56.31
2023-04-18T12:23:43.196Z,58.26
2023-04-18T12:27:59.764Z,58.89
2023-04-18T12:32:13.386Z,60.83
2023-04-18T12:36:26.817Z,61.04
2023-04-18T12:40:41.284Z,60.87
2023-04-18T12:44:53.753Z,60.77
2023-04-18T12:49:06.237Z,60.16
2023-04-18T12:53:18.655Z,61.73
2023-04-18T12:57:31.990Z,63.29
2023-04-18T13:01:44.599Z,70.44
2023-04-18T13:05:57.170Z,76.51
2023-04-18T13:10:13.651Z,76.61
2023-04-18T13:14:26.842Z,79.99
2023-04-18T13:18:39.244Z,78.75
2023-04-18T13:22:51.620Z,76.96
2023-04-18T13:27:10.582Z,76.77
2023-04-18T13:31:23.108Z,76.80
2023-04-18T13:35:36.625Z,78.73
2023-04-18T13:39:49.233Z,76.56
2023-04-18T13:44:01.616Z,74.06
2023-04-18T13:48:16.161Z,74.26
2023-04-18T13:52:29.058Z,73.80
2023-04-18T13:56:42.223Z,71.79
2023-04-18T14:00:54.671Z,69.10
2023-04-18T14:05:07.760Z,61.78
2023-04-18T14:09:20.284Z,58.07
2023-04-18T14:13:32.997Z,57.83
2023-04-18T14:17:45.913Z,62.58
2023-04-18T14:21:58.496Z,61.58
2023-04-18T14:26:11.470Z,57.85
2023-04-18T14:30:24.057Z,59.22
2023-04-18T14:34:38.724Z,59.45
2023-04-18T14:38:51.340Z,56.59
2023-04-18T14:43:03.928Z,55.41
2023-04-18T14:47:16.713Z,56.28
2023-04-18T14:51:29.096Z,56.45
2023-04-18T14:55:41.740Z,55.05
2023-04-18T14:59:55.129Z,53.85
2023-04-18T15:04:08.079Z,54.48
2023-04-18T15:08:20.966Z,53.73
2023-04-18T15:12:33.358Z,51.56
2023-04-18T15:16:45.819Z,53.41
2023-04-18T15:21:00.340Z,54.63
2023-04-18T15:25:16.583Z,56.94
2023-04-18T15:29:30.386Z,60.77
2023-04-18T15:33:44.090Z,63.21
2023-04-18T15:37:57.756Z,66.15
2023-04-18T15:42:10.253Z,67.54
2023-04-18T15:46:25.950Z,68.58
2023-04-18T15:50:38.437Z,69.21
2023-04-18T15:54:53.490Z,70.32
2023-04-18T15:59:07.130Z,70.06
2023-04-18T16:03:19.576Z,69.92
2023-04-18T16:07:32.209Z,70.10
2023-04-18T16:11:44.986Z,70.04
2023-04-18T16:15:57.569Z,70.15
2023-04-18T16:20:10.474Z,69.89
2023-04-18T16:24:22.809Z,70.47
2023-04-18T16:28:37.986Z,70.84
2023-04-18T16:32:50.629Z,71.64
2023-04-18T16:37:03.020Z,71.79
2023-04-18T16:41:15.374Z,72.24
2023-04-18T16:45:27.815Z,72.94
2023-04-18T16:49:41.565Z,72.85
2023-04-18T16:53:54.055Z,72.83
2023-04-18T16:58:06.565Z,73.43
2023-04-18T17:02:19.095Z,73.65
2023-04-18T17:06:32.393Z,73.71
2023-04-18T17:10:44.737Z,74.15
2023-04-18T17:14:57.233Z,73.13
2023-04-18T17:19:11.763Z,73.18
2023-04-18T17:23:24.290Z,72.78
2023-04-18T17:27:36.862Z,74.34
2023-04-18T17:31:49.237Z,75.29
2023-04-18T17:36:02.181Z,75.96
2023-04-18T17:40:15.884Z,75.37
2023-04-18T17:44:28.223Z,75.89
2023-04-18T17:48:41.582Z,76.09
2023-04-18T17:52:54.500Z,76.52
2023-04-18T17:57:06.948Z,76.92
2023-04-18T18:01:21.413Z,78.01
2023-04-18T18:05:33.871Z,78.43
2023-04-18T18:09:46.312Z,78.67
2023-04-18T18:13:59.470Z,78.82
2023-04-18T18:18:11.840Z,79.48
2023-04-18T18:22:26.281Z,79.01
2023-04-18T18:26:38.730Z,79.80
2023-04-18T18:30:51.408Z,79.19
2023-04-18T18:35:06.026Z,79.73
2023-04-18T18:39:18.484Z,79.68
2023-04-18T18:43:31.301Z,80.39
2023-04-18T18:47:44.000Z,80.79
2023-04-18T18:51:57.178Z,80.95
2023-04-18T18:56:09.813Z,81.70
2023-04-18T19:00:22.238Z,82.59
2023-04-18T19:04:34.678Z,82.52
2023-04-18T19:08:47.240Z,82.92
2023-04-18T19:13:00.607Z,82.83
2023-04-18T19:17:13.407Z,83.84
2023-04-18T19:21:26.364Z,84.19
2023-04-18T19:25:38.800Z,84.86
2023-04-18T19:29:51.564Z,84.86
2023-04-18T19:34:04.131Z,84.97
2023-04-18T19:38:16.579Z,84.28
2023-04-18T19:42:29.060Z,84.39
2023-04-18T19:46:41.450Z,84.16
2023-04-18T19:50:53.861Z,84.59
2023-04-18T19:55:06.902Z,83.82
2023-04-18T19:59:19.352Z,84.13
2023-04-18T20:03:33.400Z,83.44
2023-04-18T20:07:45.776Z,83.05
2023-04-18T20:12:00.750Z,83.55
2023-04-18T20:16:13.189Z,83.83
2023-04-18T20:20:25.658Z,83.97
2023-04-18T20:24:39.634Z,83.91
2023-04-18T20:28:52.040Z,84.01
2023-04-18T20:33:04.482Z,84.69
2023-04-18T20:37:20.081Z,84.82
2023-04-18T20:41:34.985Z,85.13
2023-04-18T20:45:51.312Z,85.19
2023-04-18T20:50:04.039Z,85.42
2023-04-18T20:54:16.779Z,85.32
2023-04-18T20:58:30.504Z,85.18
2023-04-18T21:02:44.036Z,84.04
2023-04-18T21:06:56.606Z,83.64
2023-04-18T21:11:09.107Z,83.58
2023-04-18T21:15:21.481Z,82.74
2023-04-18T21:19:33.925Z,82.70
2023-04-18T21:23:46.301Z,83.12
2023-04-18T21:27:58.666Z,84.86
2023-04-18T21:32:11.005Z,85.85
2023-04-18T21:36:25.160Z,86.83
2023-04-18T21:40:37.994Z,87.51
2023-04-18T21:44:50.407Z,88.41
2023-04-18T21:49:03.245Z,88.32
2023-04-18T21:53:15.774Z,87.55
2023-04-18T21:57:28.579Z,86.75
2023-04-18T22:01:41.018Z,86.21
2023-04-18T22:05:53.552Z,85.86
2023-04-18T22:10:06.383Z,85.56
2023-04-18T22:14:20.153Z,85.37
2023-04-18T22:18:37.598Z,86.15
2023-04-18T22:22:50.584Z,86.00
2023-04-18T22:27:03.099Z,87.37
2023-04-18T22:31:15.753Z,87.60
2023-04-18T22:35:28.337Z,87.57
2023-04-18T22:39:40.775Z,87.97
2023-04-18T22:43:53.239Z,88.17
2023-04-18T22:48:05.840Z,89.06
2023-04-18T22:52:19.460Z,89.21
2023-04-18T22:56:31.811Z,89.58
2023-04-18T23:00:44.038Z,89.91
2023-04-18T23:04:59.262Z,90.34
2023-04-18T23:09:11.597Z,91.26
2023-04-18T23:13:24.041Z,91.16
2023-04-18T23:17:36.478Z,91.38
2023-04-18T23:21:49.742Z,91.28
2023-04-18T23:26:02.249Z,91.74
2023-04-18T23:30:14.785Z,92.15
2023-04-18T23:34:27.132Z,92.74
2023-04-18T23:38:40.829Z,93.18
2023-04-18T23:42:53.154Z,92.71
2023-04-18T23:47:06.155Z,93.04
2023-04-18T23:51:19.329Z,93.24
2023-04-18T23:55:31.641Z,93.65
2023-04-18T23:59:44.035Z,93.33
